createdAt,value
2023-02-16T00:01:35.026Z,42.90
2023-02-16T00:04:19.681Z,43.00
2023-02-16T00:06:49.713Z,42.90
2023-02-16T00:09:18.461Z,42.90
2023-02-16T00:12:05.748Z,43.00
2023-02-16T00:14:36.103Z,43.00
2023-02-16T00:17:04.953Z,43.00
2023-02-16T00:19:37.055Z,43.00
2023-02-16T00:22:08.357Z,43.10
2023-02-16T00:24:36.750Z,43.10
2023-02-16T00:27:13.205Z,43.10
2023-02-16T00:29:41.107Z,43.10
2023-02-16T00:32:13.830Z,43.10
2023-02-16T00:34:43.177Z,43.30
2023-02-16T00:37:14.402Z,43.20
2023-02-16T00:39:43.920Z,43.20
2023-02-16T00:42:18.479Z,43.30
2023-02-16T00:44:48.874Z,43.40
2023-02-16T00:47:21.173Z,43.40
2023-02-16T00:49:50.039Z,43.50
2023-02-16T00:52:31.259Z,43.40
2023-02-16T00:55:00.187Z,43.60
2023-02-16T00:57:32.023Z,43.40
2023-02-16T01:00:04.020Z,43.60
2023-02-16T01:02:32.226Z,43.60
2023-02-16T01:05:00.214Z,43.50
2023-02-16T01:07:47.104Z,43.50
2023-02-16T01:10:32.890Z,43.60
2023-02-16T01:13:01.951Z,43.60
2023-02-16T01:15:30.131Z,43.60
2023-02-16T01:18:02.058Z,43.70
2023-02-16T01:20:30.299Z,43.80
2023-02-16T01:22:59.683Z,43.80
2023-02-16T01:25:27.782Z,43.80
2023-02-16T01:27:56.007Z,43.90
2023-02-16T01:30:25.821Z,44.10
2023-02-16T01:32:54.211Z,44.10
2023-02-16T01:35:23.627Z,44.00
2023-02-16T01:37:52.599Z,44.10
2023-02-16T01:40:32.644Z,44.10
2023-02-16T01:43:07.308Z,44.30
2023-02-16T01:45:38.726Z,44.20
2023-02-16T01:48:12.566Z,44.00
2023-02-16T01:50:45.774Z,44.20
2023-02-16T01:53:20.697Z,44.20
2023-02-16T01:55:55.694Z,44.10
2023-02-16T01:58:32.578Z,44.40
2023-02-16T02:01:39.098Z,44.40
2023-02-16T02:04:42.037Z,44.80
2023-02-16T02:07:16.295Z,44.50
2023-02-16T02:09:50.778Z,44.30
2023-02-16T02:12:30.393Z,44.30
2023-02-16T02:14:58.441Z,44.50
2023-02-16T02:17:27.580Z,44.40
2023-02-16T02:20:06.194Z,44.50
2023-02-16T02:23:33.674Z,45.00
2023-02-16T02:26:44.573Z,44.70
2023-02-16T02:29:48.229Z,44.50
2023-02-16T02:32:25.672Z,44.60
2023-02-16T02:35:03.241Z,44.30
2023-02-16T02:37:44.613Z,44.50
2023-02-16T02:40:17.974Z,44.60
2023-02-16T02:42:55.780Z,44.50
2023-02-16T02:45:29.561Z,44.50
2023-02-16T02:47:58.700Z,44.50
2023-02-16T02:50:39.015Z,44.50
2023-02-16T02:53:13.101Z,44.60
2023-02-16T02:56:02.646Z,44.50
2023-02-16T02:58:51.187Z,45.00
2023-02-16T03:01:21.748Z,44.50
2023-02-16T03:03:53.106Z,44.50
2023-02-16T03:06:25.923Z,44.50
2023-02-16T03:08:58.654Z,44.50
2023-02-16T03:11:48.244Z,44.60
2023-02-16T03:14:19.563Z,44.60
2023-02-16T03:17:10.673Z,44.60
2023-02-16T03:19:58.528Z,44.60
2023-02-16T03:22:44.594Z,44.60
2023-02-16T03:25:30.075Z,44.60
2023-02-16T03:28:18.698Z,44.60
2023-02-16T03:30:48.731Z,44.60
2023-02-16T03:33:18.527Z,44.60
2023-02-16T03:35:47.095Z,44.70
2023-02-16T03:38:15.498Z,44.70
2023-02-16T03:40:45.824Z,44.60
2023-02-16T03:43:13.930Z,44.80
2023-02-16T03:45:43.923Z,44.80
2023-02-16T03:48:12.815Z,44.80
2023-02-16T03:50:42.304Z,44.80
2023-02-16T03:53:10.414Z,44.70
2023-02-16T03:55:40.706Z,44.70
2023-02-16T03:58:10.104Z,44.70
2023-02-16T04:00:38.364Z,44.80
2023-02-16T04:03:08.951Z,44.90
2023-02-16T04:05:37.171Z,44.80
2023-02-16T04:08:08.200Z,44.90
2023-02-16T04:10:36.459Z,44.90
2023-02-16T04:13:03.423Z,45.00
2023-02-16T04:15:32.231Z,44.90
2023-02-16T04:18:00.922Z,45.00
2023-02-16T04:20:31.623Z,44.90
2023-02-16T04:22:59.602Z,45.00
2023-02-16T04:25:29.576Z,45.00
2023-02-16T04:27:57.794Z,45.10
2023-02-16T04:30:27.482Z,45.10
2023-02-16T04:32:56.413Z,45.10
2023-02-16T04:35:24.294Z,45.10
2023-02-16T04:37:52.510Z,45.10
2023-02-16T04:40:20.887Z,45.10
2023-02-16T04:42:50.831Z,45.10
2023-02-16T04:45:19.054Z,45.10
2023-02-16T04:47:47.055Z,45.10
2023-02-16T04:50:14.971Z,45.10
2023-02-16T04:52:43.108Z,45.10
2023-02-16T04:55:11.541Z,45.20
2023-02-16T04:57:40.091Z,45.20
2023-02-16T05:00:12.953Z,45.20
2023-02-16T05:02:41.265Z,45.30
2023-02-16T05:05:09.926Z,45.20
2023-02-16T05:07:37.984Z,45.20
2023-02-16T05:10:07.332Z,45.20
2023-02-16T05:12:52.669Z,45.20
2023-02-16T05:15:22.490Z,45.30
2023-02-16T05:17:51.325Z,45.20
2023-02-16T05:20:19.654Z,45.30
2023-02-16T05:22:47.687Z,45.30
2023-02-16T05:25:15.529Z,45.30
2023-02-16T05:27:43.843Z,45.30
2023-02-16T05:30:13.241Z,45.40
2023-02-16T05:32:42.564Z,45.30
2023-02-16T05:35:10.708Z,45.40
2023-02-16T05:37:40.553Z,45.40
2023-02-16T05:40:11.391Z,45.40
2023-02-16T05:42:39.282Z,45.40
2023-02-16T05:45:07.864Z,45.50
2023-02-16T05:47:35.695Z,45.50
2023-02-16T05:50:05.533Z,45.40
2023-02-16T05:52:33.448Z,45.50
2023-02-16T05:55:01.866Z,45.50
2023-02-16T05:57:30.307Z,45.60
2023-02-16T05:59:58.153Z,45.60
2023-02-16T06:02:26.217Z,45.60
2023-02-16T06:04:54.459Z,45.60
2023-02-16T06:07:23.782Z,45.50
2023-02-16T06:09:52.013Z,45.60
2023-02-16T06:12:20.138Z,45.60
2023-02-16T06:14:47.981Z,45.50
2023-02-16T06:17:16.148Z,45.60
2023-02-16T06:19:44.194Z,45.60
2023-02-16T06:22:12.153Z,45.60
2023-02-16T06:24:41.709Z,45.60
2023-02-16T06:27:09.623Z,45.70
2023-02-16T06:29:37.534Z,45.70
2023-02-16T06:32:06.251Z,45.80
2023-02-16T06:34:34.425Z,45.80
2023-02-16T06:37:02.445Z,45.70
2023-02-16T06:39:30.480Z,45.80
2023-02-16T06:41:59.752Z,45.70
2023-02-16T06:44:27.738Z,45.70
2023-02-16T06:46:56.294Z,45.70
2023-02-16T06:49:27.723Z,45.80
2023-02-16T06:51:56.217Z,45.80
2023-02-16T06:54:24.273Z,45.80
2023-02-16T06:56:52.547Z,45.90
2023-02-16T06:59:21.953Z,45.90
2023-02-16T07:01:49.824Z,45.80
2023-02-16T07:04:17.836Z,45.90
2023-02-16T07:06:45.719Z,45.90
2023-02-16T07:09:13.661Z,46.00
2023-02-16T07:11:41.853Z,46.00
2023-02-16T07:14:10.045Z,46.00
2023-02-16T07:16:39.488Z,46.10
2023-02-16T07:19:07.814Z,46.10
2023-02-16T07:21:36.077Z,46.10
2023-02-16T07:24:04.455Z,46.10
2023-02-16T07:26:32.621Z,46.10
2023-02-16T07:29:00.792Z,46.20
2023-02-16T07:31:28.809Z,46.30
2023-02-16T07:33:58.674Z,46.30
2023-02-16T07:36:26.767Z,46.30
2023-02-16T07:38:55.018Z,46.30
2023-02-16T07:41:23.303Z,46.40
2023-02-16T07:43:51.194Z,46.50
2023-02-16T07:46:19.619Z,46.50
2023-02-16T07:48:49.412Z,46.50
2023-02-16T07:51:24.073Z,46.60
2023-02-16T07:53:52.932Z,46.70
2023-02-16T07:56:22.032Z,46.60
2023-02-16T07:58:52.039Z,46.70
2023-02-16T08:01:20.014Z,46.80
2023-02-16T08:03:48.031Z,46.80
2023-02-16T08:06:16.591Z,46.90
2023-02-16T08:08:46.604Z,47.00
2023-02-16T08:11:16.830Z,47.20
2023-02-16T08:13:45.762Z,47.30
2023-02-16T08:16:16.001Z,47.40
2023-02-16T08:18:43.942Z,47.50
2023-02-16T08:21:14.791Z,47.70
2023-02-16T08:23:47.640Z,47.70
2023-02-16T08:26:18.242Z,47.70
2023-02-16T08:28:46.996Z,47.70
2023-02-16T08:31:15.536Z,47.70
2023-02-16T08:33:43.940Z,47.70
2023-02-16T08:36:18.138Z,47.70
2023-02-16T08:38:50.307Z,47.50
2023-02-16T08:41:19.534Z,47.40
2023-02-16T08:43:47.439Z,47.30
2023-02-16T08:46:16.158Z,47.30
2023-02-16T08:48:45.407Z,47.10
2023-02-16T08:51:16.069Z,47.10
2023-02-16T08:53:44.596Z,47.10
2023-02-16T08:56:14.932Z,47.30
2023-02-16T08:58:46.159Z,47.20
2023-02-16T09:01:16.212Z,47.20
2023-02-16T09:03:46.228Z,47.30
2023-02-16T09:06:16.311Z,47.20
2023-02-16T09:08:46.642Z,47.40
2023-02-16T09:11:17.544Z,47.50
2023-02-16T09:13:46.902Z,47.60
2023-02-16T09:16:16.808Z,47.40
2023-02-16T09:18:45.847Z,47.50
2023-02-16T09:21:15.940Z,47.50
2023-02-16T09:23:48.051Z,47.40
2023-02-16T09:26:18.816Z,47.40
2023-02-16T09:28:48.903Z,47.30
2023-02-16T09:31:20.176Z,47.20
2023-02-16T09:33:48.378Z,47.10
2023-02-16T09:36:16.398Z,47.00
2023-02-16T09:38:44.307Z,46.90
2023-02-16T09:41:31.990Z,46.80
2023-02-16T09:44:02.874Z,46.90
2023-02-16T09:46:33.498Z,46.60
2023-02-16T09:49:04.169Z,46.60
2023-02-16T09:51:37.487Z,46.60
2023-02-16T09:54:16.919Z,46.50
2023-02-16T09:56:53.804Z,46.70
2023-02-16T09:59:35.165Z,46.70
2023-02-16T10:02:23.535Z,46.70
2023-02-16T10:05:04.381Z,47.10
2023-02-16T10:07:42.461Z,47.20
2023-02-16T10:10:17.030Z,47.30
2023-02-16T10:12:51.784Z,47.10
2023-02-16T10:15:24.850Z,46.80
2023-02-16T10:17:56.857Z,46.60
2023-02-16T10:20:29.197Z,46.50
2023-02-16T10:23:03.141Z,46.40
2023-02-16T10:25:40.911Z,46.20
2023-02-16T10:28:17.638Z,46.10
2023-02-16T10:30:51.737Z,46.20
2023-02-16T10:33:32.201Z,46.10
2023-02-16T10:36:02.570Z,46.30
2023-02-16T10:38:38.225Z,46.60
2023-02-16T10:41:17.961Z,47.40
2023-02-16T10:43:52.828Z,48.70
2023-02-16T10:46:26.346Z,49.40
2023-02-16T10:48:55.518Z,49.60
2023-02-16T10:51:27.975Z,49.90
2023-02-16T10:54:02.521Z,49.90
2023-02-16T10:56:54.352Z,49.70
2023-02-16T10:59:25.622Z,48.50
2023-02-16T11:01:54.985Z,48.60
2023-02-16T11:04:35.607Z,47.90
2023-02-16T11:07:06.398Z,46.40
2023-02-16T11:09:34.781Z,46.30
2023-02-16T11:12:03.585Z,45.60
2023-02-16T11:14:32.863Z,44.20
2023-02-16T11:17:12.548Z,43.20
2023-02-16T11:19:48.254Z,41.90
2023-02-16T11:22:28.108Z,42.00
2023-02-16T11:24:56.540Z,40.90
2023-02-16T11:27:26.027Z,41.20
2023-02-16T11:30:22.315Z,40.40
2023-02-16T11:32:51.699Z,38.70
2023-02-16T11:35:20.176Z,38.70
2023-02-16T11:37:48.372Z,38.10
2023-02-16T11:40:23.165Z,37.30
2023-02-16T11:42:53.088Z,37.40
2023-02-16T11:45:31.361Z,37.60
2023-02-16T11:48:02.518Z,37.30
2023-02-16T11:50:32.297Z,37.90
2023-02-16T11:53:16.711Z,38.30
2023-02-16T11:55:48.105Z,38.50
2023-02-16T11:58:21.621Z,38.90
2023-02-16T12:01:06.267Z,39.20
2023-02-16T12:04:01.222Z,39.40
2023-02-16T12:06:43.200Z,39.80
2023-02-16T12:09:21.815Z,40.10
2023-02-16T12:12:00.679Z,40.50
2023-02-16T12:14:37.301Z,40.70
2023-02-16T12:17:20.063Z,40.90
2023-02-16T12:19:51.540Z,41.00
2023-02-16T12:22:34.218Z,41.00
2023-02-16T12:25:25.671Z,41.10
2023-02-16T12:27:59.309Z,41.10
2023-02-16T12:30:41.846Z,41.00
2023-02-16T12:33:26.771Z,41.10
2023-02-16T12:36:12.832Z,41.20
2023-02-16T12:38:51.314Z,41.30
2023-02-16T12:41:28.777Z,41.50
2023-02-16T12:44:03.397Z,41.70
2023-02-16T12:46:36.897Z,41.60
2023-02-16T12:49:13.530Z,41.50
2023-02-16T12:51:48.206Z,41.50
2023-02-16T12:54:23.570Z,41.60
2023-02-16T12:56:58.797Z,41.60
2023-02-16T12:59:35.289Z,41.60
2023-02-16T13:02:10.910Z,41.50
2023-02-16T13:04:45.271Z,41.50
2023-02-16T13:07:18.180Z,41.60
2023-02-16T13:09:54.569Z,41.60
2023-02-16T13:12:31.519Z,41.70
2023-02-16T13:15:07.962Z,41.70
2023-02-16T13:17:40.165Z,41.70
2023-02-16T13:20:16.765Z,41.90
2023-02-16T13:23:22.032Z,42.10
2023-02-16T13:26:14.473Z,42.10
2023-02-16T13:28:55.903Z,42.30
2023-02-16T13:31:35.969Z,42.40
2023-02-16T13:34:29.220Z,42.50
2023-02-16T13:37:14.487Z,42.70
2023-02-16T13:40:01.911Z,42.70
2023-02-16T13:42:49.870Z,42.80
2023-02-16T13:45:21.883Z,42.90
2023-02-16T13:47:50.758Z,43.00
2023-02-16T13:50:29.089Z,43.10
2023-02-16T13:53:09.643Z,43.20
2023-02-16T13:55:39.905Z,43.10
2023-02-16T13:58:27.278Z,42.90
2023-02-16T14:00:56.014Z,42.90
2023-02-16T14:03:38.607Z,42.60
2023-02-16T14:06:33.587Z,42.50
2023-02-16T14:09:45.529Z,42.50
2023-02-16T14:12:23.421Z,42.50
2023-02-16T14:15:00.857Z,42.30
2023-02-16T14:17:31.764Z,42.30
2023-02-16T14:20:02.194Z,42.20
2023-02-16T14:22:36.224Z,42.20
2023-02-16T14:25:08.800Z,42.30
2023-02-16T14:27:46.620Z,42.50
2023-02-16T14:30:21.184Z,42.80
2023-02-16T14:32:55.056Z,42.70
2023-02-16T14:35:25.863Z,42.70
2023-02-16T14:37:59.588Z,42.80
2023-02-16T14:40:55.270Z,42.90
2023-02-16T14:43:29.315Z,43.40
2023-02-16T14:46:28.294Z,43.30
2023-02-16T14:49:26.070Z,43.30
2023-02-16T14:52:35.836Z,43.30
2023-02-16T14:55:46.651Z,43.30
2023-02-16T14:58:28.842Z,43.40
2023-02-16T15:01:04.751Z,43.50
2023-02-16T15:03:45.289Z,43.60
2023-02-16T15:06:24.255Z,43.70
2023-02-16T15:08:59.794Z,43.60
2023-02-16T15:11:32.782Z,43.50
2023-02-16T15:14:11.563Z,43.20
2023-02-16T15:16:41.745Z,43.80
2023-02-16T15:19:16.423Z,43.30
2023-02-16T15:21:44.662Z,43.30
2023-02-16T15:24:24.167Z,43.20
2023-02-16T15:27:01.875Z,43.30
2023-02-16T15:29:31.226Z,43.20
2023-02-16T15:32:01.006Z,43.10
2023-02-16T15:34:33.160Z,43.10
2023-02-16T15:37:23.450Z,43.10
2023-02-16T15:40:12.155Z,43.50
2023-02-16T15:42:43.303Z,43.20
2023-02-16T15:45:34.144Z,43.50
2023-02-16T15:48:22.898Z,43.50
2023-02-16T15:50:53.502Z,43.50
2023-02-16T15:53:34.777Z,43.30
2023-02-16T15:56:07.024Z,43.20
2023-02-16T15:58:35.763Z,43.00
2023-02-16T16:01:05.616Z,43.00
2023-02-16T16:03:34.199Z,43.00
2023-02-16T16:06:07.291Z,43.00
2023-02-16T16:08:36.554Z,43.10
2023-02-16T16:11:05.362Z,43.00
2023-02-16T16:13:33.768Z,43.00
2023-02-16T16:16:07.051Z,43.10
2023-02-16T16:18:46.275Z,43.10
2023-02-16T16:21:24.194Z,43.20
2023-02-16T16:23:58.027Z,43.40
2023-02-16T16:26:26.954Z,43.20
2023-02-16T16:28:55.723Z,43.50
2023-02-16T16:31:43.623Z,43.60
2023-02-16T16:34:30.875Z,43.70
2023-02-16T16:36:59.780Z,43.50
2023-02-16T16:39:29.359Z,43.60
2023-02-16T16:42:17.720Z,43.80
2023-02-16T16:44:56.419Z,44.10
2023-02-16T16:47:29.132Z,44.00
2023-02-16T16:49:59.476Z,44.50
2023-02-16T16:52:38.986Z,44.20
2023-02-16T16:55:31.663Z,44.20
2023-02-16T16:58:01.385Z,44.60
2023-02-16T17:00:34.096Z,44.50
2023-02-16T17:03:04.821Z,44.70
2023-02-16T17:05:33.193Z,44.70
2023-02-16T17:08:01.258Z,44.60
2023-02-16T17:10:29.624Z,44.70
2023-02-16T17:12:59.642Z,44.70
2023-02-16T17:15:41.740Z,45.00
2023-02-16T17:18:15.602Z,45.20
2023-02-16T17:20:43.972Z,45.20
2023-02-16T17:23:12.823Z,45.10
2023-02-16T17:25:41.554Z,45.30
2023-02-16T17:28:10.820Z,45.30
2023-02-16T17:30:39.282Z,45.40
2023-02-16T17:33:08.170Z,46.20
2023-02-16T17:35:39.893Z,45.70
2023-02-16T17:38:08.949Z,45.90
2023-02-16T17:40:37.410Z,45.90
2023-02-16T17:43:11.915Z,45.90
2023-02-16T17:45:40.093Z,46.10
2023-02-16T17:48:08.386Z,46.00
2023-02-16T17:50:38.364Z,46.10
2023-02-16T17:53:12.587Z,46.10
2023-02-16T17:55:40.872Z,46.20
2023-02-16T17:58:08.713Z,46.10
2023-02-16T18:00:38.216Z,46.20
2023-02-16T18:03:06.648Z,46.20
2023-02-16T18:05:34.971Z,46.30
2023-02-16T18:08:05.011Z,46.50
2023-02-16T18:10:36.051Z,46.40
2023-02-16T18:13:04.469Z,46.50
2023-02-16T18:15:33.141Z,46.50
2023-02-16T18:18:01.183Z,46.40
2023-02-16T18:20:29.205Z,46.40
2023-02-16T18:22:57.290Z,46.70
2023-02-16T18:25:26.669Z,46.50
2023-02-16T18:27:54.948Z,46.60
2023-02-16T18:30:23.568Z,47.50
2023-02-16T18:32:51.808Z,47.20
2023-02-16T18:35:20.580Z,46.90
2023-02-16T18:37:49.098Z,47.60
2023-02-16T18:40:20.663Z,47.30
2023-02-16T18:42:50.151Z,47.20
2023-02-16T18:45:18.329Z,47.50
2023-02-16T18:47:46.281Z,47.40
2023-02-16T18:50:14.252Z,47.80
2023-02-16T18:52:43.282Z,47.60
2023-02-16T18:55:12.097Z,47.50
2023-02-16T18:57:40.460Z,47.40
2023-02-16T19:00:12.354Z,47.50
2023-02-16T19:02:40.922Z,47.50
2023-02-16T19:05:09.764Z,47.60
2023-02-16T19:07:37.736Z,47.40
2023-02-16T19:10:10.463Z,47.70
2023-02-16T19:12:38.631Z,48.10
2023-02-16T19:15:07.361Z,47.70
2023-02-16T19:17:38.556Z,47.60
2023-02-16T19:20:08.022Z,48.00
2023-02-16T19:22:37.325Z,47.80
2023-02-16T19:25:05.780Z,47.70
2023-02-16T19:27:34.268Z,47.60
2023-02-16T19:30:02.288Z,47.60
2023-02-16T19:32:30.537Z,47.90
2023-02-16T19:34:59.920Z,47.60
2023-02-16T19:37:27.892Z,47.70
2023-02-16T19:39:55.893Z,47.70
2023-02-16T19:42:23.881Z,47.80
2023-02-16T19:44:52.218Z,47.60
2023-02-16T19:47:20.071Z,47.70
2023-02-16T19:49:48.158Z,47.60
2023-02-16T19:52:17.994Z,47.80
2023-02-16T19:54:46.196Z,47.70
2023-02-16T19:57:14.020Z,47.70
2023-02-16T19:59:42.121Z,47.70
2023-02-16T20:02:11.752Z,47.70
2023-02-16T20:04:39.669Z,47.80
2023-02-16T20:07:08.502Z,48.00
2023-02-16T20:09:38.379Z,48.20
2023-02-16T20:12:06.898Z,47.90
2023-02-16T20:14:35.201Z,47.80
2023-02-16T20:17:03.099Z,48.10
2023-02-16T20:19:31.178Z,48.10
2023-02-16T20:21:59.095Z,48.00
2023-02-16T20:24:26.981Z,48.20
2023-02-16T20:26:56.155Z,48.00
2023-02-16T20:29:24.305Z,48.30
2023-02-16T20:31:54.063Z,48.40
2023-02-16T20:34:23.275Z,48.40
2023-02-16T20:36:51.341Z,48.30
2023-02-16T20:39:20.147Z,48.10
2023-02-16T20:41:48.105Z,48.10
2023-02-16T20:44:17.643Z,48.20
2023-02-16T20:46:45.646Z,48.60
2023-02-16T20:49:14.564Z,48.30
2023-02-16T20:51:42.437Z,48.30
2023-02-16T20:54:12.303Z,48.30
2023-02-16T20:56:40.275Z,48.30
2023-02-16T20:59:08.444Z,48.20
2023-02-16T21:01:39.494Z,48.40
2023-02-16T21:04:08.615Z,48.40
2023-02-16T21:06:37.994Z,48.50
2023-02-16T21:09:07.374Z,48.60
2023-02-16T21:11:37.217Z,49.00
2023-02-16T21:14:05.684Z,48.60
2023-02-16T21:16:33.802Z,48.70
2023-02-16T21:19:05.601Z,49.10
2023-02-16T21:21:40.912Z,48.90
2023-02-16T21:24:09.351Z,49.60
2023-02-16T21:26:37.558Z,49.10
2023-02-16T21:29:05.636Z,49.10
2023-02-16T21:31:33.807Z,49.10
2023-02-16T21:34:03.260Z,49.20
2023-02-16T21:36:31.314Z,49.20
2023-02-16T21:38:59.131Z,49.20
2023-02-16T21:41:29.100Z,49.30
2023-02-16T21:44:00.800Z,49.40
2023-02-16T21:46:30.992Z,49.50
2023-02-16T21:48:58.277Z,49.60
2023-02-16T21:51:31.927Z,49.60
2023-02-16T21:54:00.265Z,49.90
2023-02-16T21:56:33.335Z,49.80
2023-02-16T21:59:01.612Z,50.00
2023-02-16T22:01:32.729Z,50.20
2023-02-16T22:04:01.937Z,50.10
2023-02-16T22:06:33.536Z,50.10
2023-02-16T22:09:02.468Z,50.30
2023-02-16T22:11:30.436Z,50.30
2023-02-16T22:14:00.233Z,50.40
2023-02-16T22:16:29.505Z,50.50
2023-02-16T22:18:58.345Z,50.50
2023-02-16T22:21:26.621Z,50.60
2023-02-16T22:23:56.557Z,50.60
2023-02-16T22:26:26.534Z,50.90
2023-02-16T22:28:55.029Z,50.80
2023-02-16T22:31:25.246Z,51.00
2023-02-16T22:33:56.543Z,51.10
2023-02-16T22:36:25.002Z,51.20
2023-02-16T22:38:56.194Z,51.20
2023-02-16T22:41:25.112Z,51.30
2023-02-16T22:43:54.395Z,51.30
2023-02-16T22:46:23.303Z,51.40
2023-02-16T22:48:51.854Z,51.50
2023-02-16T22:51:21.836Z,51.60
2023-02-16T22:53:49.760Z,51.60
2023-02-16T22:56:20.236Z,51.70
2023-02-16T22:58:48.406Z,51.80
2023-02-16T23:01:18.980Z,51.70
2023-02-16T23:03:47.813Z,51.80
2023-02-16T23:06:17.695Z,51.90
2023-02-16T23:08:46.446Z,52.20
2023-02-16T23:11:14.913Z,52.00
2023-02-16T23:13:44.128Z,52.00
2023-02-16T23:16:14.067Z,52.10
2023-02-16T23:18:42.670Z,52.20
2023-02-16T23:21:14.820Z,52.40
2023-02-16T23:23:43.044Z,52.60
2023-02-16T23:26:11.382Z,52.40
2023-02-16T23:28:41.438Z,52.60
2023-02-16T23:31:12.626Z,52.60
2023-02-16T23:33:40.935Z,52.60
2023-02-16T23:36:09.595Z,52.60
2023-02-16T23:38:37.853Z,52.70
2023-02-16T23:41:07.863Z,52.80
2023-02-16T23:43:36.696Z,52.80
2023-02-16T23:46:05.534Z,52.80
2023-02-16T23:48:35.287Z,53.50
2023-02-16T23:51:03.098Z,53.30
2023-02-16T23:53:31.483Z,53.50
2023-02-16T23:56:00.306Z,53.30
2023-02-16T23:58:28.727Z,53.30
